Terminal Aerodrome Forecast
Issued by NWS

Home | Current Version | Previous Version | Graphics & Text | Print | Product List | Glossary On
Versions: 1 2 3 4 5 6 7 8 9 10 11 12 13 14 15
000
FTUS42 KMHX 230520
TAFOAJ
TAF
KOAJ 230520Z 2306/2406 00000KT P6SM SKC
      TEMPO 2309/2312 5SM BR
     FM231300 04007KT P6SM SCT050
     FM240000 10004KT P6SM SKC
      AMD LTD TO CLD VIS AND WIND=

USA.gov is the U.S. government's official web portal to all federal, state and local government web resources and services.